^^
Saratoga-Weather Station Historical Data
Daily Summary for December 18, 2021 Units:  English    Metric   Both
Daily Weekly Monthly Yearly Custom
  High: Low: Average:
Temperature: 42.8 °F 37.4 °F 39.9 °F
Dew Point: 40.1 °F 36.3 °F 38.3 °F
Humidity: 97% 88% 94%
Wind Speed: 9mph 0mph 1.4mph
Wind Gust: 9mph - -
Wind- - SE
Pressure: 30.6 in 30.6 in -
Precipitation: 0 in    
Historical Graphs
 
 
Tabular Data for December 18, 2021
Time Temperature Dew Point Pressure Wind Wind Speed Wind Gust Humidity Rainfall Rate (Hourly) solar
00:01 41.7 °F 39.6 °F 30.6 in Calm   2 mph 92% 0 in 0 W/m2
00:06 41.7 °F 39.6 °F 30.6 in Calm   2 mph 92% 0 in 0 W/m2
00:11 41.7 °F 39.6 °F 30.6 in Calm     92% 0 in 0 W/m2
00:16 41.7 °F 39.6 °F 30.6 in Calm     92% 0 in 0 W/m2
00:21 41.7 °F 39.6 °F 30.6 in Calm     92% 0 in 0 W/m2
00:26 41.7 °F 39.6 °F 30.6 in Calm     92% 0 in 0 W/m2
00:31 41.9 °F 39.7 °F 30.6 in Calm     92% 0 in 0 W/m2
00:36 41.9 °F 39.7 °F 30.6 in Calm     92% 0 in 0 W/m2
00:41 42.1 °F 39.6 °F 30.6 in Calm   2 mph 91% 0 in 0 W/m2
00:46 42.1 °F 39.6 °F 30.6 in Calm   1 mph 91% 0 in 0 W/m2
00:51 42.1 °F 39.6 °F 30.6 in Calm   2 mph 91% 0 in 0 W/m2
00:56 42.1 °F 39.6 °F 30.6 in Calm   1 mph 91% 0 in 0 W/m2
01:02 42.3 °F 39.7 °F 30.6 in Calm   1 mph 91% 0 in 0 W/m2
01:07 42.3 °F 39.6 °F 30.6 in Calm   2 mph 90% 0 in 0 W/m2
01:12 42.4 °F 39.7 °F 30.6 in ENE 2 mph 2 mph 90% 0 in 0 W/m2
01:17 42.4 °F 39.7 °F 30.6 in Calm   2 mph 90% 0 in 0 W/m2
01:22 42.4 °F 39.7 °F 30.6 in ESE 0.9 mph 5 mph 90% 0 in 0 W/m2
01:27 42.4 °F 39.4 °F 30.6 in East 2 mph 2 mph 89% 0 in 0 W/m2
01:32 42.6 °F 39.6 °F 30.6 in ENE 0.9 mph 5 mph 89% 0 in 0 W/m2
01:37 42.6 °F 39.6 °F 30.6 in Calm   2 mph 89% 0 in 0 W/m2
01:42 42.6 °F 39.6 °F 30.6 in ENE 2 mph 3 mph 89% 0 in 0 W/m2
01:47 42.6 °F 39.6 °F 30.6 in ESE 2 mph 3 mph 89% 0 in 0 W/m2
01:52 42.6 °F 39.6 °F 30.6 in NE 0.9 mph 3 mph 89% 0 in 0 W/m2
01:57 42.6 °F 39.6 °F 30.6 in Calm     89% 0 in 0 W/m2
02:02 42.6 °F 39.6 °F 30.6 in Calm   1 mph 89% 0 in 0 W/m2
02:07 42.4 °F 39.4 °F 30.6 in Calm   2 mph 89% 0 in 0 W/m2
02:12 42.3 °F 39.2 °F 30.6 in NNE 0.9 mph 3 mph 89% 0 in 0 W/m2
02:17 42.1 °F 39 °F 30.6 in NE 0.9 mph 3 mph 89% 0 in 0 W/m2
02:22 41.7 °F 38.7 °F 30.6 in Calm     89% 0 in 0 W/m2
02:27 41.4 °F 38.7 °F 30.6 in Calm   3 mph 90% 0 in 0 W/m2
02:32 41.2 °F 38.5 °F 30.6 in SE 0.9 mph 1 mph 90% 0 in 0 W/m2
02:37 40.6 °F 37.9 °F 30.6 in Calm     90% 0 in 0 W/m2
02:42 40.5 °F 37.8 °F 30.6 in Calm   1 mph 90% 0 in 0 W/m2
02:47 39.9 °F 37.6 °F 30.6 in WNW 2 mph 4 mph 91% 0 in 0 W/m2
02:52 39.7 °F 37.4 °F 30.6 in Calm     91% 0 in 0 W/m2
02:57 39.4 °F 37.2 °F 30.6 in Calm   3 mph 92% 0 in 0 W/m2
03:02 39 °F 36.9 °F 30.6 in NW 0.9 mph 1 mph 92% 0 in 0 W/m2
03:07 38.8 °F 36.7 °F 30.6 in Calm   2 mph 92% 0 in 0 W/m2
03:12 38.7 °F 36.9 °F 30.6 in North 0.9 mph 3 mph 93% 0 in 0 W/m2
03:33 38.1 °F 36.5 °F 30.6 in Calm   3 mph 94% 0 in 0 W/m2
03:38 38.1 °F 36.5 °F 30.6 in NNW 2 mph 3 mph 94% 0 in 0 W/m2
03:43 38.1 °F 36.5 °F 30.6 in Calm   2 mph 94% 0 in 0 W/m2
03:48 38.1 °F 36.9 °F 30.6 in East 0.9 mph 2 mph 95% 0 in 0 W/m2
03:53 38.3 °F 37 °F 30.6 in ENE 0.9 mph 2 mph 95% 0 in 0 W/m2
03:58 38.5 °F 37.2 °F 30.6 in ENE 0.9 mph 3 mph 95% 0 in 0 W/m2
04:03 38.5 °F 37.2 °F 30.6 in NNE 2 mph 3 mph 95% 0 in 0 W/m2
04:08 38.5 °F 37.2 °F 30.6 in Calm   1 mph 95% 0 in 0 W/m2
04:13 38.5 °F 37.2 °F 30.6 in Calm   1 mph 95% 0 in 0 W/m2
04:18 38.7 °F 37.4 °F 30.6 in ESE 0.9 mph 2 mph 95% 0 in 0 W/m2
04:23 38.7 °F 37.4 °F 30.6 in Calm   4 mph 95% 0 in 0 W/m2
04:28 38.7 °F 37.4 °F 30.6 in NW 2 mph 3 mph 95% 0 in 0 W/m2
04:33 38.7 °F 37.4 °F 30.6 in NNE 0.9 mph 2 mph 95% 0 in 0 W/m2
04:38 38.7 °F 37.4 °F 30.6 in NNE 0.9 mph 2 mph 95% 0 in 0 W/m2
04:43 38.8 °F 37.6 °F 30.6 in Calm   3 mph 95% 0 in 0 W/m2
04:48 38.8 °F 37.8 °F 30.6 in North 2.9 mph 4 mph 96% 0 in 0 W/m2
04:53 38.8 °F 37.8 °F 30.6 in NE 2 mph 4 mph 96% 0 in 0 W/m2
04:58 38.8 °F 37.8 °F 30.6 in NE 2 mph 2 mph 96% 0 in 0 W/m2
05:03 38.8 °F 37.8 °F 30.6 in NNE 2 mph 2 mph 96% 0 in 0 W/m2
05:08 38.8 °F 37.8 °F 30.6 in NNW 2.9 mph 3 mph 96% 0 in 0 W/m2
05:13 38.8 °F 37.8 °F 30.6 in Calm   5 mph 96% 0 in 0 W/m2
05:18 39 °F 37.9 °F 30.6 in NW 2 mph 7 mph 96% 0 in 0 W/m2
05:23 39 °F 37.9 °F 30.6 in ENE 2 mph 3 mph 96% 0 in 0 W/m2
05:28 39 °F 37.8 °F 30.6 in Calm     95% 0 in 0 W/m2
05:33 39 °F 37.8 °F 30.6 in ENE 2 mph 8 mph 95% 0 in 0 W/m2
05:52 39.4 °F 38.1 °F 30.6 in NNW 2.9 mph 4 mph 95% 0 in 0 W/m2
05:57 39.4 °F 38.1 °F 30.6 in Calm   5 mph 95% 0 in 0 W/m2
06:03 39.4 °F 38.1 °F 30.6 in Calm   3 mph 95% 0 in 0 W/m2
06:08 39.4 °F 38.1 °F 30.6 in ESE 2 mph 4 mph 95% 0 in 0 W/m2
06:13 39.4 °F 38.1 °F 30.6 in SE 0.9 mph 2 mph 95% 0 in 0 W/m2
06:18 39.4 °F 38.1 °F 30.6 in East 2.9 mph 4 mph 95% 0 in 0 W/m2
06:23 39.4 °F 38.1 °F 30.6 in East 6 mph 7 mph 95% 0 in 0 W/m2
06:28 39.4 °F 38.1 °F 30.6 in East 2 mph 3 mph 95% 0 in 0 W/m2
06:33 39.4 °F 38.1 °F 30.6 in East 0.9 mph 4 mph 95% 0 in 0 W/m2
06:38 39.4 °F 38.1 °F 30.6 in East 2.9 mph 3 mph 95% 0 in 0 W/m2
06:43 39.4 °F 38.1 °F 30.6 in Calm   2 mph 95% 0 in 0 W/m2
06:48 39.4 °F 38.1 °F 30.6 in East 0.9 mph 2 mph 95% 0 in 0 W/m2
06:53 39.4 °F 38.1 °F 30.6 in East 0.9 mph 3 mph 95% 0 in 0 W/m2
06:58 39.2 °F 37.9 °F 30.6 in ESE 2 mph 4 mph 95% 0 in 0 W/m2
07:03 39.2 °F 37.9 °F 30.6 in East 0.9 mph 2 mph 95% 0 in 0 W/m2
07:08 39 °F 37.8 °F 30.6 in Calm   4 mph 95% 0 in 0 W/m2
07:13 39 °F 37.8 °F 30.6 in ENE 2 mph 2 mph 95% 0 in 0 W/m2
07:18 39 °F 37.8 °F 30.6 in ENE 2 mph 2 mph 95% 0 in 0 W/m2
07:23 39 °F 37.8 °F 30.6 in Calm   3 mph 95% 0 in 0 W/m2
07:28 39 °F 37.8 °F 30.6 in Calm   2 mph 95% 0 in 0 W/m2
07:33 39 °F 37.8 °F 30.6 in Calm   2 mph 95% 0 in 0 W/m2
07:38 39 °F 37.8 °F 30.6 in East 2.9 mph 3 mph 95% 0 in 0 W/m2
07:43 39 °F 37.8 °F 30.6 in East 2 mph 4 mph 95% 0 in 0 W/m2
07:48 39 °F 37.8 °F 30.6 in East 2 mph 3 mph 95% 0 in 0 W/m2
07:53 39 °F 37.8 °F 30.6 in Calm     95% 0 in 0 W/m2
07:58 39 °F 37.8 °F 30.6 in East 2 mph 3 mph 95% 0 in 0 W/m2
08:03 39 °F 37.8 °F 30.6 in ESE 0.9 mph 2 mph 95% 0 in 0 W/m2
08:08 38.8 °F 37.6 °F 30.6 in East 4 mph 4 mph 95% 0 in 0 W/m2
08:13 38.8 °F 37.6 °F 30.6 in Calm   1 mph 95% 0 in 0 W/m2
08:18 38.8 °F 37.6 °F 30.6 in Calm   2 mph 95% 0 in 0 W/m2
08:23 38.8 °F 37.6 °F 30.6 in Calm   1 mph 95% 0 in 0 W/m2
08:28 38.8 °F 37.6 °F 30.6 in Calm   2 mph 95% 0 in 0 W/m2
08:33 38.8 °F 37.6 °F 30.6 in Calm   1 mph 95% 0 in 5 W/m2
08:38 38.8 °F 37.6 °F 30.6 in Calm   2 mph 95% 0 in 7 W/m2
08:43 38.8 °F 37.6 °F 30.6 in Calm     95% 0 in 11 W/m2
08:48 38.8 °F 37.6 °F 30.6 in Calm   1 mph 95% 0 in 16 W/m2
08:53 38.8 °F 37.6 °F 30.6 in East 0.9 mph 2 mph 95% 0 in 21 W/m2
08:58 38.8 °F 37.6 °F 30.6 in ENE 0.9 mph 3 mph 95% 0 in 26 W/m2
09:03 38.8 °F 37.6 °F 30.6 in East 0.9 mph 4 mph 95% 0 in 35 W/m2
09:08 38.8 °F 37.6 °F 30.6 in ENE 2.9 mph 3 mph 95% 0 in 47 W/m2
09:13 39 °F 37.8 °F 30.6 in Calm   4 mph 95% 0 in 53 W/m2
09:18 39 °F 37.8 °F 30.6 in ENE 0.9 mph 4 mph 95% 0 in 49 W/m2
09:23 39 °F 37.4 °F 30.6 in NE 2.9 mph 3 mph 94% 0 in 47 W/m2
09:28 39 °F 37.4 °F 30.6 in ENE 0.9 mph 4 mph 94% 0 in 51 W/m2
09:33 39.2 °F 37.6 °F 30.6 in ENE 2 mph 3 mph 94% 0 in 47 W/m2
09:38 39.2 °F 37.6 °F 30.6 in NE 2 mph 2 mph 94% 0 in 35 W/m2
09:43 39.2 °F 37.6 °F 30.6 in Calm   2 mph 94% 0 in 33 W/m2
09:48 39.2 °F 37.6 °F 30.6 in ESE 2 mph 4 mph 94% 0 in 33 W/m2
09:53 39.2 °F 37.6 °F 30.6 in ESE 0.9 mph 3 mph 94% 0 in 32 W/m2
09:58 39.2 °F 37.6 °F 30.6 in East 2 mph 4 mph 94% 0 in 28 W/m2
10:03 39.4 °F 37.8 °F 30.6 in NE 0.9 mph 4 mph 94% 0 in 30 W/m2
10:08 39.4 °F 37.8 °F 30.6 in East 2 mph 3 mph 94% 0 in 32 W/m2
10:13 39.4 °F 37.6 °F 30.6 in East 0.9 mph 3 mph 93% 0 in 37 W/m2
10:18 39.6 °F 37.9 °F 30.6 in SE 0.9 mph 4 mph 94% 0 in 33 W/m2
10:23 39.6 °F 37.8 °F 30.6 in ENE 2 mph 3 mph 93% 0 in 33 W/m2
10:28 39.7 °F 37.9 °F 30.6 in Calm   2 mph 93% 0 in 44 W/m2
10:33 39.7 °F 37.9 °F 30.6 in NNW 4 mph 4 mph 93% 0 in 47 W/m2
10:38 39.9 °F 38.1 °F 30.6 in North 4 mph 5 mph 93% 0 in 42 W/m2
10:43 39.9 °F 38.1 °F 30.6 in Calm   4 mph 93% 0 in 53 W/m2
10:48 40.1 °F 37.9 °F 30.6 in Calm   5 mph 92% 0 in 65 W/m2
10:53 40.3 °F 38.1 °F 30.6 in Calm   5 mph 92% 0 in 79 W/m2
11:13 40.8 °F 38.5 °F 30.6 in Calm   1 mph 91% 0 in 83 W/m2
11:18 40.8 °F 38.5 °F 30.6 in Calm   3 mph 91% 0 in 95 W/m2
11:23 41 °F 38.7 °F 30.6 in NE 0.9 mph 4 mph 91% 0 in 86 W/m2
11:28 41 °F 38.7 °F 30.6 in Calm   2 mph 91% 0 in 90 W/m2
11:33 41 °F 38.3 °F 30.6 in North 0.9 mph 4 mph 90% 0 in 74 W/m2
11:38 41 °F 38.3 °F 30.6 in West 0.9 mph 3 mph 90% 0 in 84 W/m2
11:43 41.2 °F 38.5 °F 30.6 in North 0.9 mph 3 mph 90% 0 in 88 W/m2
11:48 41.2 °F 38.5 °F 30.6 in Calm   4 mph 90% 0 in 83 W/m2
11:53 41.4 °F 38.7 °F 30.6 in East 4.9 mph 9 mph 90% 0 in 109 W/m2
11:58 41.4 °F 38.7 °F 30.6 in North 2 mph 8 mph 90% 0 in 76 W/m2
12:03 41.5 °F 38.8 °F 30.6 in ENE 2 mph 9 mph 90% 0 in 84 W/m2
12:08 41.5 °F 38.8 °F 30.6 in East 2 mph 4 mph 90% 0 in 105 W/m2
12:13 41.7 °F 39 °F 30.6 in ENE 0.9 mph 4 mph 90% 0 in 118 W/m2
12:18 42.1 °F 39.4 °F 30.6 in NNE 4.9 mph 5 mph 90% 0 in 105 W/m2
12:23 42.3 °F 39.2 °F 30.6 in ENE 6 mph 6 mph 89% 0 in 47 W/m2
12:28 42.3 °F 39.2 °F 30.6 in ESE 0.9 mph 2 mph 89% 0 in 63 W/m2
12:33 42.3 °F 39.2 °F 30.6 in ENE 2 mph 8 mph 89% 0 in 60 W/m2
12:38 42.1 °F 38.8 °F 30.6 in ESE 2.9 mph 6 mph 88% 0 in 63 W/m2
12:43 42.1 °F 39 °F 30.6 in ESE 2.9 mph 4 mph 89% 0 in 65 W/m2
12:48 42.3 °F 39.2 °F 30.6 in ENE 4 mph 7 mph 89% 0 in 105 W/m2
12:53 42.3 °F 39.2 °F 30.6 in NE 2.9 mph 3 mph 89% 0 in 151 W/m2
12:58 42.6 °F 39.9 °F 30.6 in WNW 2 mph 7 mph 90% 0 in 135 W/m2
13:03 42.8 °F 40.1 °F 30.6 in NNW 4.9 mph 6 mph 90% 0 in 148 W/m2
13:08 42.8 °F 39.7 °F 30.6 in NE 0.9 mph 3 mph 89% 0 in 144 W/m2
13:13 42.8 °F 39.7 °F 30.6 in WSW 2.9 mph 3 mph 89% 0 in 111 W/m2
13:18 42.8 °F 40.1 °F 30.6 in ENE 9 mph 9 mph 90% 0 in 76 W/m2
13:23 42.6 °F 39.6 °F 30.6 in North 2 mph 4 mph 89% 0 in 65 W/m2
13:28 42.4 °F 39.7 °F 30.6 in East 6 mph 9 mph 90% 0 in 70 W/m2
13:33 42.3 °F 39.6 °F 30.6 in NE 2 mph 3 mph 90% 0 in 70 W/m2
13:38 42.1 °F 39.4 °F 30.6 in East 2 mph 3 mph 90% 0 in 60 W/m2
13:43 41.9 °F 39.2 °F 30.6 in NE 0.9 mph 5 mph 90% 0 in 53 W/m2
13:48 41.7 °F 39 °F 30.6 in ENE 0.9 mph 6 mph 90% 0 in 49 W/m2
13:53 41.7 °F 39.2 °F 30.6 in North 0.9 mph 6 mph 91% 0 in 49 W/m2
13:58 41.5 °F 39.2 °F 30.6 in East 6 mph 6 mph 91% 0 in 49 W/m2
14:03 41.5 °F 39.2 °F 30.6 in ENE 2 mph 4 mph 91% 0 in 46 W/m2
14:08 41.5 °F 39.2 °F 30.6 in East 0.9 mph 2 mph 91% 0 in 49 W/m2
14:13 41.5 °F 39.4 °F 30.6 in ENE 0.9 mph 5 mph 92% 0 in 51 W/m2
14:18 41.5 °F 39.4 °F 30.6 in SE 2 mph 4 mph 92% 0 in 47 W/m2
14:23 41.5 °F 39.4 °F 30.6 in ENE 2.9 mph 5 mph 92% 0 in 44 W/m2
14:28 41.5 °F 39.4 °F 30.6 in SSE 4.9 mph 5 mph 92% 0 in 39 W/m2
14:33 41.5 °F 39.4 °F 30.6 in Calm   2 mph 92% 0 in 32 W/m2
14:38 41.5 °F 39.4 °F 30.6 in ENE 0.9 mph 3 mph 92% 0 in 30 W/m2
14:43 41.5 °F 39.7 °F 30.6 in North 0.9 mph 6 mph 93% 0 in 26 W/m2
14:48 41.4 °F 39.6 °F 30.6 in Calm   3 mph 93% 0 in 26 W/m2
14:53 41.2 °F 39.4 °F 30.6 in North 2 mph 6 mph 93% 0 in 25 W/m2
14:59 41.2 °F 39.4 °F 30.6 in SE 2.9 mph 4 mph 93% 0 in 21 W/m2
15:04 41 °F 39.2 °F 30.6 in Calm   2 mph 93% 0 in 21 W/m2
15:09 40.8 °F 39.2 °F 30.6 in NNW 2 mph 3 mph 94% 0 in 21 W/m2
15:14 40.8 °F 39.2 °F 30.6 in NE 2 mph 4 mph 94% 0 in 19 W/m2
15:19 40.6 °F 39 °F 30.6 in NE 4 mph 5 mph 94% 0 in 18 W/m2
15:24 40.6 °F 39 °F 30.6 in West 2.9 mph 3 mph 94% 0 in 16 W/m2
15:29 40.6 °F 39 °F 30.6 in ENE 0.9 mph 4 mph 94% 0 in 14 W/m2
15:34 40.6 °F 39 °F 30.6 in Calm   3 mph 94% 0 in 14 W/m2
15:39 40.6 °F 39 °F 30.6 in NE 2.9 mph 5 mph 94% 0 in 14 W/m2
15:44 40.5 °F 38.8 °F 30.6 in NNW 2 mph 3 mph 94% 0 in 12 W/m2
15:49 40.5 °F 38.8 °F 30.6 in Calm   3 mph 94% 0 in 11 W/m2
15:54 40.5 °F 39.2 °F 30.6 in Calm   3 mph 95% 0 in 9 W/m2
15:59 40.5 °F 39.2 °F 30.6 in ENE 0.9 mph 7 mph 95% 0 in 9 W/m2
16:17 40.3 °F 39 °F 30.6 in NE 2.9 mph 3 mph 95% 0 in 5 W/m2
16:23 40.3 °F 39 °F 30.6 in East 0.9 mph 4 mph 95% 0 in 0 W/m2
16:28 40.3 °F 39 °F 30.6 in NNW 0.9 mph 4 mph 95% 0 in 0 W/m2
16:33 40.3 °F 39 °F 30.6 in NNW 4.9 mph 6 mph 95% 0 in 0 W/m2
16:38 40.1 °F 38.8 °F 30.6 in NNW 0.9 mph 3 mph 95% 0 in 0 W/m2
16:43 40.3 °F 39 °F 30.6 in NE 6 mph 6 mph 95% 0 in 0 W/m2
16:48 40.1 °F 38.8 °F 30.6 in ENE 2.9 mph 4 mph 95% 0 in 0 W/m2
16:53 40.1 °F 38.8 °F 30.6 in NE 2.9 mph 4 mph 95% 0 in 0 W/m2
16:58 40.3 °F 39 °F 30.6 in North 4 mph 6 mph 95% 0 in 0 W/m2
17:03 40.3 °F 39 °F 30.6 in ENE 2.9 mph 3 mph 95% 0 in 0 W/m2
17:08 40.3 °F 39 °F 30.6 in ENE 4 mph 6 mph 95% 0 in 0 W/m2
17:13 40.3 °F 39 °F 30.6 in NNW 0.9 mph   95% 0 in 0 W/m2
17:18 40.3 °F 39 °F 30.6 in ENE 0.9 mph 4 mph 95% 0 in 0 W/m2
17:23 40.3 °F 39 °F 30.6 in Calm   3 mph 95% 0 in 0 W/m2
17:28 40.3 °F 39 °F 30.6 in ENE 4 mph 5 mph 95% 0 in 0 W/m2
17:33 40.3 °F 39 °F 30.6 in East 2 mph 4 mph 95% 0 in 0 W/m2
17:38 40.5 °F 39.2 °F 30.6 in SE 2 mph 3 mph 95% 0 in 0 W/m2
17:43 40.3 °F 39 °F 30.6 in Calm   4 mph 95% 0 in 0 W/m2
17:48 40.3 °F 39 °F 30.6 in NE 2 mph 4 mph 95% 0 in 0 W/m2
17:53 40.3 °F 39 °F 30.6 in East 0.9 mph 2 mph 95% 0 in 0 W/m2
17:58 40.3 °F 39 °F 30.6 in NE 0.9 mph 7 mph 95% 0 in 0 W/m2
18:03 40.3 °F 39 °F 30.6 in NE 2 mph 4 mph 95% 0 in 0 W/m2
18:08 40.1 °F 38.8 °F 30.6 in ENE 4 mph 4 mph 95% 0 in 0 W/m2
18:13 39.9 °F 38.7 °F 30.6 in ESE 2.9 mph 4 mph 95% 0 in 0 W/m2
18:18 39.9 °F 38.3 °F 30.6 in ENE 2 mph 7 mph 94% 0 in 0 W/m2
18:23 39.7 °F 38.1 °F 30.6 in East 2 mph 3 mph 94% 0 in 0 W/m2
18:28 39.6 °F 38.3 °F 30.6 in East 2 mph 7 mph 95% 0 in 0 W/m2
18:33 39.6 °F 38.3 °F 30.6 in East 2.9 mph 6 mph 95% 0 in 0 W/m2
18:38 39.6 °F 38.3 °F 30.6 in ENE 0.9 mph 6 mph 95% 0 in 0 W/m2
18:43 39.4 °F 37.8 °F 30.6 in ESE 2.9 mph 5 mph 94% 0 in 0 W/m2
18:48 39.4 °F 38.1 °F 30.6 in Calm   1 mph 95% 0 in 0 W/m2
18:53 39.4 °F 38.1 °F 30.6 in East 0.9 mph 6 mph 95% 0 in 0 W/m2
18:58 39.4 °F 38.1 °F 30.6 in ENE 4 mph 4 mph 95% 0 in 0 W/m2
19:03 39.4 °F 38.1 °F 30.6 in ESE 2.9 mph 4 mph 95% 0 in 0 W/m2
19:09 39.2 °F 37.9 °F 30.6 in SE 2.9 mph 7 mph 95% 0 in 0 W/m2
19:14 39 °F 37.8 °F 30.6 in ENE 2.9 mph 4 mph 95% 0 in 0 W/m2
19:19 39 °F 37.8 °F 30.6 in NE 0.9 mph 7 mph 95% 0 in 0 W/m2
19:24 39 °F 37.8 °F 30.6 in ENE 0.9 mph 3 mph 95% 0 in 0 W/m2
19:29 39 °F 37.8 °F 30.6 in ESE 2.9 mph 4 mph 95% 0 in 0 W/m2
19:34 39 °F 37.8 °F 30.6 in Calm   3 mph 95% 0 in 0 W/m2
19:39 39 °F 37.8 °F 30.6 in Calm   2 mph 95% 0 in 0 W/m2
19:44 39 °F 37.8 °F 30.6 in Calm   2 mph 95% 0 in 0 W/m2
19:49 39 °F 37.8 °F 30.6 in NW 2 mph 4 mph 95% 0 in 0 W/m2
19:54 39 °F 37.8 °F 30.6 in NNE 0.9 mph 2 mph 95% 0 in 0 W/m2
19:59 39 °F 37.8 °F 30.6 in North 2 mph 4 mph 95% 0 in 0 W/m2
20:04 39 °F 37.8 °F 30.6 in NNW 0.9 mph 3 mph 95% 0 in 0 W/m2
20:09 38.8 °F 37.8 °F 30.6 in Calm   1 mph 96% 0 in 0 W/m2
20:14 38.8 °F 37.8 °F 30.6 in North 2 mph 2 mph 96% 0 in 0 W/m2
20:19 38.8 °F 37.8 °F 30.6 in NE 2 mph 4 mph 96% 0 in 0 W/m2
20:24 38.8 °F 37.8 °F 30.6 in ESE 2.9 mph 4 mph 96% 0 in 0 W/m2
20:29 38.8 °F 37.8 °F 30.6 in Calm   2 mph 96% 0 in 0 W/m2
20:34 38.8 °F 37.8 °F 30.6 in North 0.9 mph 2 mph 96% 0 in 0 W/m2
20:39 38.8 °F 37.8 °F 30.6 in NW 0.9 mph 2 mph 96% 0 in 0 W/m2
20:44 38.8 °F 37.8 °F 30.6 in Calm   3 mph 96% 0 in 0 W/m2
20:49 38.8 °F 37.8 °F 30.6 in NE 0.9 mph 5 mph 96% 0 in 0 W/m2
20:54 38.8 °F 37.8 °F 30.6 in East 2 mph 2 mph 96% 0 in 0 W/m2
20:59 38.8 °F 37.8 °F 30.6 in Calm     96% 0 in 0 W/m2
21:04 38.7 °F 37.6 °F 30.6 in Calm   3 mph 96% 0 in 0 W/m2
21:09 38.7 °F 37.6 °F 30.6 in NE 0.9 mph 2 mph 96% 0 in 0 W/m2
21:14 38.7 °F 37.6 °F 30.6 in NNW 0.9 mph 2 mph 96% 0 in 0 W/m2
21:19 38.7 °F 37.6 °F 30.6 in NNW 0.9 mph 2 mph 96% 0 in 0 W/m2
21:24 38.7 °F 37.6 °F 30.6 in North 0.9 mph 2 mph 96% 0 in 0 W/m2
21:29 38.5 °F 37.4 °F 30.6 in NNW 2.9 mph 3 mph 96% 0 in 0 W/m2
21:34 38.5 °F 37.4 °F 30.6 in Calm   5 mph 96% 0 in 0 W/m2
21:39 38.5 °F 37.4 °F 30.6 in Calm   2 mph 96% 0 in 0 W/m2
21:44 38.3 °F 37.2 °F 30.6 in Calm   3 mph 96% 0 in 0 W/m2
21:49 38.1 °F 37 °F 30.6 in North 2 mph 3 mph 96% 0 in 0 W/m2
21:54 38.1 °F 37 °F 30.6 in North 2 mph 3 mph 96% 0 in 0 W/m2
21:59 38.1 °F 37 °F 30.6 in ENE 4 mph 6 mph 96% 0 in 0 W/m2
22:04 38.1 °F 37 °F 30.6 in Calm   1 mph 96% 0 in 0 W/m2
22:09 38.1 °F 37 °F 30.6 in Calm   6 mph 96% 0 in 0 W/m2
22:14 38.1 °F 37 °F 30.6 in North 4 mph 4 mph 96% 0 in 0 W/m2
22:19 38.1 °F 37 °F 30.6 in North 0.9 mph 2 mph 96% 0 in 0 W/m2
22:24 37.9 °F 36.9 °F 30.6 in Calm   4 mph 96% 0 in 0 W/m2
22:29 37.9 °F 36.9 °F 30.6 in West 2 mph 3 mph 96% 0 in 0 W/m2
22:34 37.9 °F 36.9 °F 30.6 in Calm   6 mph 96% 0 in 0 W/m2
22:39 37.9 °F 36.9 °F 30.6 in NE 2.9 mph 3 mph 96% 0 in 0 W/m2
22:44 37.9 °F 36.9 °F 30.6 in North 0.9 mph 3 mph 96% 0 in 0 W/m2
22:49 37.9 °F 36.9 °F 30.6 in NNE 2 mph 2 mph 96% 0 in 0 W/m2
22:54 37.8 °F 36.7 °F 30.6 in North 2 mph 2 mph 96% 0 in 0 W/m2
22:59 37.8 °F 36.7 °F 30.6 in NNW 4 mph 6 mph 96% 0 in 0 W/m2
23:04 37.8 °F 36.7 °F 30.6 in NE 0.9 mph 4 mph 96% 0 in 0 W/m2
23:09 37.8 °F 36.7 °F 30.6 in NNE 6 mph 6 mph 96% 0 in 0 W/m2
23:14 37.8 °F 36.7 °F 30.6 in NE 2 mph 3 mph 96% 0 in 0 W/m2
23:19 37.8 °F 36.7 °F 30.6 in North 0.9 mph 2 mph 96% 0 in 0 W/m2
23:24 37.8 °F 36.7 °F 30.6 in NNW 2 mph 3 mph 96% 0 in 0 W/m2
23:29 37.8 °F 37 °F 30.6 in NNW 2 mph 3 mph 97% 0 in 0 W/m2
23:34 37.6 °F 36.9 °F 30.6 in North 2 mph 2 mph 97% 0 in 0 W/m2
23:39 37.6 °F 36.9 °F 30.6 in NNW 0.9 mph 6 mph 97% 0 in 0 W/m2
23:44 37.6 °F 36.5 °F 30.6 in Calm   2 mph 96% 0 in 0 W/m2
23:49 37.6 °F 36.5 °F 30.6 in NE 2 mph 6 mph 96% 0 in 0 W/m2
23:54 37.4 °F 36.3 °F 30.6 in Calm   2 mph 96% 0 in 0 W/m2
23:59 37.4 °F 36.3 °F 30.6 in NW 0.9 mph 2 mph 96% 0 in 0 W/m2
Juneau County Weather
Compliments of Weather Underground - 4 mb